Terminal Aerodrome Forecast
Issued by NWS Charleston, WV

Current Version | Previous Version | Graphics & Text | Print | Product List | Glossary On
Versions: 1 2 3 4 5 6 7 8 9 10 11 12 13 14 15 16 17 18 19 20 21 22 23 24 25 26 27 28 29
000
FTUS41 KRLX 040901 AAA
TAFPKB
TAF AMD
KPKB 040901Z 0409/0506 00000KT 3SM BR OVC004
     FM041300 VRB03KT P6SM BKN020
     FM041700 31004KT P6SM SCT035
     FM050300 00000KT 6SM BR SCT045=

USA.gov is the U.S. government's official web portal to all federal, state and local government web resources and services.